Terminal Aerodrome Forecast
Issued by NWS

Home | Current Version | Previous Version | Graphics & Text | Print | Product List | Glossary On
Versions: 1 2 3 4 5 6 7 8 9 10 11 12 13 14 15 16
000
FTUS43 KMPX 211358 AAA
TAFRWF
TAF AMD
KRWF 211358Z 2114/2212 17012KT P6SM -SHRA SCT040 BKN060 OVC150
      TEMPO 2114/2116 5SM SHRA BKN040
     FM211800 15009KT P6SM BKN040 OVC100
     FM220100 14010KT P6SM VCTS BKN050CB OVC100
      TEMPO 2202/2204 5SM -TSRA BKN040CB
     FM220600 29007KT P6SM SCT025 BKN060=

USA.gov is the U.S. government's official web portal to all federal, state and local government web resources and services.